createdAt,value
2023-02-17T00:01:15.417Z,134.83
2023-02-17T00:03:43.744Z,123.50
2023-02-17T00:06:12.635Z,121.27
2023-02-17T00:08:42.068Z,127.77
2023-02-17T00:11:10.102Z,124.80
2023-02-17T00:13:38.067Z,124.47
2023-02-17T00:16:09.961Z,129.23
2023-02-17T00:18:38.376Z,125.23
2023-02-17T00:21:13.711Z,121.00
2023-02-17T00:23:43.190Z,117.10
2023-02-17T00:26:11.597Z,126.30
2023-02-17T00:28:39.800Z,120.00
2023-02-17T00:31:09.439Z,125.97
2023-02-17T00:33:37.981Z,115.00
2023-02-17T00:36:07.765Z,126.53
2023-02-17T00:38:35.901Z,127.67
2023-02-17T00:41:05.414Z,128.27
2023-02-17T00:43:33.427Z,119.53
2023-02-17T00:46:04.186Z,118.50
2023-02-17T00:48:32.981Z,134.23
2023-02-17T00:51:00.996Z,122.80
2023-02-17T00:53:29.036Z,120.17
2023-02-17T00:55:57.181Z,127.10
2023-02-17T00:58:26.732Z,111.00
2023-02-17T01:00:56.098Z,116.90
2023-02-17T01:03:24.243Z,127.10
2023-02-17T01:05:54.496Z,117.57
2023-02-17T01:08:23.913Z,124.97
2023-02-17T01:10:53.154Z,125.80
2023-02-17T01:13:21.382Z,119.10
2023-02-17T01:15:52.775Z,131.10
2023-02-17T01:18:23.293Z,110.87
2023-02-17T01:20:52.470Z,113.77
2023-02-17T01:23:20.600Z,121.40
2023-02-17T01:25:50.714Z,119.57
2023-02-17T01:28:21.316Z,116.83
2023-02-17T01:30:50.877Z,102.13
2023-02-17T01:33:18.819Z,108.47
2023-02-17T01:35:46.732Z,106.37
2023-02-17T01:38:14.737Z,120.27
2023-02-17T01:40:48.227Z,118.00
2023-02-17T01:43:17.985Z,118.73
2023-02-17T01:45:51.556Z,113.70
2023-02-17T01:48:23.681Z,115.73
2023-02-17T01:50:53.928Z,107.30
2023-02-17T01:53:25.031Z,105.13
2023-02-17T01:55:55.619Z,108.20
2023-02-17T01:58:25.790Z,112.37
2023-02-17T02:00:56.545Z,113.37
2023-02-17T02:03:26.402Z,117.73
2023-02-17T02:05:54.363Z,110.33
2023-02-17T02:08:22.347Z,106.73
2023-02-17T02:10:50.324Z,114.90
2023-02-17T02:13:18.237Z,118.73
2023-02-17T02:15:53.473Z,116.13
2023-02-17T02:18:38.922Z,115.90
2023-02-17T02:21:54.797Z,103.43
2023-02-17T02:24:29.606Z,96.43
2023-02-17T02:27:21.406Z,103.37
2023-02-17T02:30:29.435Z,107.10
2023-02-17T02:33:14.840Z,95.30
2023-02-17T02:35:52.272Z,106.60
2023-02-17T02:38:26.857Z,99.30
2023-02-17T02:41:02.232Z,107.37
2023-02-17T02:43:31.816Z,104.80
2023-02-17T02:46:00.135Z,104.50
2023-02-17T02:48:29.510Z,110.47
2023-02-17T02:51:13.554Z,105.53
2023-02-17T02:54:09.953Z,113.17
2023-02-17T02:56:52.363Z,102.47
2023-02-17T02:59:32.932Z,113.63
2023-02-17T03:02:11.191Z,110.50
2023-02-17T03:04:47.115Z,106.63
2023-02-17T03:07:22.791Z,110.17
2023-02-17T03:09:52.206Z,117.47
2023-02-17T03:12:21.216Z,113.93
2023-02-17T03:14:51.408Z,111.20
2023-02-17T03:17:19.355Z,113.37
2023-02-17T03:19:52.629Z,108.10
2023-02-17T03:22:23.583Z,114.40
2023-02-17T03:24:52.308Z,121.67
2023-02-17T03:27:20.615Z,108.43
2023-02-17T03:29:49.589Z,113.00
2023-02-17T03:32:20.128Z,124.00
2023-02-17T03:34:48.293Z,107.23
2023-02-17T03:37:17.567Z,117.63
2023-02-17T03:39:45.438Z,115.93
2023-02-17T03:42:13.337Z,115.03
2023-02-17T03:44:41.202Z,113.40
2023-02-17T03:47:09.166Z,113.57
2023-02-17T03:49:37.085Z,116.77
2023-02-17T03:52:05.347Z,109.00
2023-02-17T03:54:34.711Z,115.60
2023-02-17T03:57:02.599Z,122.87
2023-02-17T03:59:30.466Z,125.07
2023-02-17T04:01:58.502Z,116.27
2023-02-17T04:04:26.552Z,126.27
2023-02-17T04:06:54.601Z,123.90
2023-02-17T04:09:22.585Z,120.70
2023-02-17T04:11:51.796Z,109.93
2023-02-17T04:14:19.711Z,120.63
2023-02-17T04:16:47.776Z,113.83
2023-02-17T04:19:15.735Z,122.70
2023-02-17T04:21:43.729Z,114.87
2023-02-17T04:24:11.596Z,118.87
2023-02-17T04:26:39.511Z,129.03
2023-02-17T04:29:08.738Z,120.40
2023-02-17T04:31:36.707Z,122.20
2023-02-17T04:34:04.661Z,113.03
2023-02-17T04:36:32.548Z,120.67
2023-02-17T04:39:00.463Z,114.30
2023-02-17T04:41:28.459Z,123.67
2023-02-17T04:43:56.368Z,123.77
2023-02-17T04:46:25.624Z,114.97
2023-02-17T04:48:53.534Z,117.73
2023-02-17T04:51:21.489Z,116.50
2023-02-17T04:53:49.535Z,120.13
2023-02-17T04:56:17.516Z,116.63
2023-02-17T04:58:45.526Z,120.30
2023-02-17T05:01:13.484Z,120.90
2023-02-17T05:03:42.972Z,117.70
2023-02-17T05:06:10.927Z,117.63
2023-02-17T05:08:38.881Z,114.10
2023-02-17T05:11:06.785Z,126.30
2023-02-17T05:13:34.718Z,128.37
2023-02-17T05:16:03.178Z,122.13
2023-02-17T05:18:31.159Z,114.70
2023-02-17T05:21:00.438Z,123.47
2023-02-17T05:23:28.364Z,128.87
2023-02-17T05:25:56.328Z,129.13
2023-02-17T05:28:24.282Z,127.70
2023-02-17T05:30:52.361Z,126.50
2023-02-17T05:33:20.330Z,123.70
2023-02-17T05:35:48.264Z,121.80
2023-02-17T05:38:17.650Z,128.70
2023-02-17T05:40:45.570Z,118.47
2023-02-17T05:43:13.494Z,116.03
2023-02-17T05:45:41.384Z,124.60
2023-02-17T05:48:09.269Z,132.10
2023-02-17T05:50:37.173Z,123.17
2023-02-17T05:53:05.169Z,124.93
2023-02-17T05:55:34.489Z,122.77
2023-02-17T05:58:02.348Z,116.77
2023-02-17T06:00:32.066Z,115.03
2023-02-17T06:03:00.018Z,125.43
2023-02-17T06:05:27.936Z,136.20
2023-02-17T06:07:55.854Z,124.17
2023-02-17T06:10:23.754Z,132.33
2023-02-17T06:12:53.005Z,120.30
2023-02-17T06:15:20.947Z,115.57
2023-02-17T06:17:48.907Z,130.10
2023-02-17T06:20:17.106Z,119.83
2023-02-17T06:22:45.037Z,123.87
2023-02-17T06:25:12.988Z,135.93
2023-02-17T06:27:42.852Z,123.07
2023-02-17T06:30:13.690Z,122.00
2023-02-17T06:32:41.733Z,123.33
2023-02-17T06:35:09.782Z,122.73
2023-02-17T06:37:37.722Z,130.47
2023-02-17T06:40:06.533Z,132.17
2023-02-17T06:42:34.467Z,131.63
2023-02-17T06:45:05.466Z,126.70
2023-02-17T06:47:35.161Z,128.47
2023-02-17T06:50:03.293Z,126.00
2023-02-17T06:52:31.255Z,128.40
2023-02-17T06:54:59.230Z,124.27
2023-02-17T06:57:27.288Z,124.07
2023-02-17T06:59:55.241Z,141.93
2023-02-17T07:02:23.306Z,122.40
2023-02-17T07:04:52.581Z,132.20
2023-02-17T07:07:20.519Z,131.23
2023-02-17T07:09:48.475Z,125.73
2023-02-17T07:12:16.440Z,137.17
2023-02-17T07:14:44.834Z,132.53
2023-02-17T07:17:12.737Z,125.13
2023-02-17T07:19:40.713Z,133.43
2023-02-17T07:22:09.961Z,132.97
2023-02-17T07:24:37.839Z,132.53
2023-02-17T07:27:08.084Z,122.30
2023-02-17T07:29:37.062Z,125.60
2023-02-17T07:32:05.293Z,134.00
2023-02-17T07:34:33.297Z,114.57
2023-02-17T07:37:01.232Z,124.97
2023-02-17T07:39:30.476Z,116.73
2023-02-17T07:42:00.975Z,112.00
2023-02-17T07:44:29.136Z,108.90
2023-02-17T07:46:57.047Z,117.30
2023-02-17T07:49:25.031Z,113.13
2023-02-17T07:51:52.953Z,103.93
2023-02-17T07:54:20.892Z,101.47
2023-02-17T07:56:50.150Z,101.30
2023-02-17T07:59:18.198Z,101.60
2023-02-17T08:01:46.346Z,96.10
2023-02-17T08:04:14.354Z,95.20
2023-02-17T08:06:42.248Z,104.40
2023-02-17T08:09:29.278Z,98.50
2023-02-17T08:12:16.223Z,92.43
2023-02-17T08:14:44.169Z,100.10
2023-02-17T08:17:12.119Z,91.80
2023-02-17T08:19:48.184Z,91.87
2023-02-17T08:22:17.389Z,88.63
2023-02-17T08:24:45.496Z,83.67
2023-02-17T08:27:15.658Z,93.63
2023-02-17T08:29:43.895Z,87.07
2023-02-17T08:32:12.101Z,90.53
2023-02-17T08:34:40.261Z,82.17
2023-02-17T08:37:09.237Z,88.13
2023-02-17T08:39:37.973Z,82.37
2023-02-17T08:42:06.670Z,83.30
2023-02-17T08:44:37.717Z,91.10
2023-02-17T08:47:06.369Z,80.90
2023-02-17T08:49:34.867Z,81.47
2023-02-17T08:52:03.196Z,81.50
2023-02-17T08:54:31.750Z,72.90
2023-02-17T08:56:59.867Z,74.00
2023-02-17T08:59:27.962Z,73.33
2023-02-17T09:01:57.800Z,82.03
2023-02-17T09:04:26.026Z,76.43
2023-02-17T09:06:56.788Z,77.17
2023-02-17T09:09:27.791Z,78.60
2023-02-17T09:11:57.282Z,73.73
2023-02-17T09:14:25.556Z,81.63
2023-02-17T09:16:54.389Z,84.37
2023-02-17T09:19:24.551Z,74.40
2023-02-17T09:21:52.597Z,83.73
2023-02-17T09:24:20.750Z,82.13
2023-02-17T09:26:48.686Z,76.73
2023-02-17T09:29:16.683Z,71.67
2023-02-17T09:31:46.124Z,79.70
2023-02-17T09:34:15.074Z,77.97
2023-02-17T09:36:44.426Z,78.17
2023-02-17T09:39:14.101Z,74.50
2023-02-17T09:41:44.562Z,81.20
2023-02-17T09:44:20.540Z,70.00
2023-02-17T09:47:01.721Z,73.27
2023-02-17T09:49:36.472Z,67.63
2023-02-17T09:52:09.983Z,67.10
2023-02-17T09:54:45.777Z,82.17
2023-02-17T09:57:19.707Z,73.33
2023-02-17T09:59:51.680Z,75.43
2023-02-17T10:02:28.395Z,81.30
2023-02-17T10:05:01.065Z,82.50
2023-02-17T10:07:33.965Z,76.40
2023-02-17T10:10:09.329Z,77.97
2023-02-17T10:12:41.670Z,80.93
2023-02-17T10:15:16.042Z,78.67
2023-02-17T10:17:51.720Z,77.30
2023-02-17T10:20:23.722Z,79.83
2023-02-17T10:22:58.345Z,74.13
2023-02-17T10:25:43.568Z,83.30
2023-02-17T10:28:18.094Z,75.63
2023-02-17T10:30:53.966Z,80.97
2023-02-17T10:33:26.952Z,84.10
2023-02-17T10:35:59.308Z,81.37
2023-02-17T10:38:42.729Z,75.13
2023-02-17T10:41:14.694Z,79.80
2023-02-17T10:43:45.715Z,78.33
2023-02-17T10:46:16.480Z,82.93
2023-02-17T10:48:48.412Z,81.57
2023-02-17T10:51:19.489Z,71.00
2023-02-17T10:53:52.376Z,75.93
2023-02-17T10:56:23.241Z,78.00
2023-02-17T10:58:55.933Z,76.57
2023-02-17T11:01:24.290Z,77.00
2023-02-17T11:04:02.385Z,83.73
2023-02-17T11:06:31.448Z,73.97
2023-02-17T11:09:03.287Z,72.83
2023-02-17T11:11:33.226Z,79.70
2023-02-17T11:14:11.688Z,80.27
2023-02-17T11:16:42.585Z,73.60
2023-02-17T11:19:23.481Z,73.90
2023-02-17T11:21:52.789Z,74.23
2023-02-17T11:24:22.668Z,73.43
2023-02-17T11:26:58.577Z,73.07
2023-02-17T11:29:26.841Z,76.70
2023-02-17T11:31:57.478Z,74.50
2023-02-17T11:34:28.981Z,74.50
2023-02-17T11:37:02.981Z,73.63
2023-02-17T11:39:38.219Z,74.70
2023-02-17T11:42:16.408Z,79.37
2023-02-17T11:44:44.649Z,72.37
2023-02-17T11:47:22.921Z,80.07
2023-02-17T11:50:04.823Z,70.90
2023-02-17T11:52:47.587Z,75.13
2023-02-17T11:55:30.386Z,81.20
2023-02-17T11:58:18.774Z,76.37
2023-02-17T12:00:54.895Z,78.13
2023-02-17T12:03:41.873Z,84.17
2023-02-17T12:06:14.911Z,76.53
2023-02-17T12:09:03.596Z,80.57
2023-02-17T12:11:39.326Z,80.27
2023-02-17T12:14:22.776Z,81.63
2023-02-17T12:16:56.635Z,78.93
2023-02-17T12:19:39.611Z,83.80
2023-02-17T12:22:17.767Z,83.70
2023-02-17T12:25:19.243Z,80.63
2023-02-17T12:28:00.116Z,86.07
2023-02-17T12:30:39.968Z,84.47
2023-02-17T12:33:22.799Z,84.00
2023-02-17T12:35:56.271Z,79.03
2023-02-17T12:38:27.264Z,75.33
2023-02-17T12:41:00.906Z,78.40
2023-02-17T12:43:36.962Z,77.43
2023-02-17T12:46:10.487Z,80.50
2023-02-17T12:48:43.562Z,79.37
2023-02-17T12:51:16.255Z,76.13
2023-02-17T12:53:48.824Z,77.27
2023-02-17T12:56:39.139Z,82.07
2023-02-17T12:59:14.849Z,76.70
2023-02-17T13:01:54.064Z,78.90
2023-02-17T13:04:25.113Z,73.03
2023-02-17T13:07:04.245Z,78.20
2023-02-17T13:09:36.449Z,82.60
2023-02-17T13:12:33.461Z,71.33
2023-02-17T13:15:06.479Z,77.20
2023-02-17T13:17:37.958Z,76.07
2023-02-17T13:20:27.185Z,72.43
2023-02-17T13:23:08.108Z,78.30
2023-02-17T13:25:38.183Z,74.43
2023-02-17T13:28:19.052Z,74.53
2023-02-17T13:30:52.209Z,76.10
2023-02-17T13:33:31.613Z,73.23
2023-02-17T13:35:59.594Z,70.33
2023-02-17T13:38:29.139Z,67.33
2023-02-17T13:41:01.654Z,66.97
2023-02-17T13:43:31.828Z,65.93
2023-02-17T13:46:03.591Z,63.07
2023-02-17T13:48:33.002Z,59.97
2023-02-17T13:51:02.709Z,64.53
2023-02-17T13:53:32.392Z,59.10
2023-02-17T13:56:01.949Z,59.43
2023-02-17T13:58:31.906Z,66.23
2023-02-17T14:01:03.976Z,68.27
2023-02-17T14:03:35.924Z,62.27
2023-02-17T14:06:04.907Z,62.10
2023-02-17T14:08:37.497Z,68.43
2023-02-17T14:11:09.270Z,68.93
2023-02-17T14:13:38.555Z,76.60
2023-02-17T14:16:08.799Z,71.40
2023-02-17T14:18:38.934Z,68.70
2023-02-17T14:21:09.683Z,75.33
2023-02-17T14:23:49.043Z,74.17
2023-02-17T14:26:30.209Z,77.70
2023-02-17T14:28:59.854Z,71.37
2023-02-17T14:31:29.919Z,68.37
2023-02-17T14:34:00.602Z,78.20
2023-02-17T14:36:31.704Z,69.37
2023-02-17T14:39:00.401Z,73.07
2023-02-17T14:41:29.029Z,78.87
2023-02-17T14:43:57.325Z,83.07
2023-02-17T14:46:25.576Z,73.33
2023-02-17T14:48:55.415Z,72.53
2023-02-17T14:51:25.142Z,92.33
2023-02-17T14:53:53.915Z,83.13
2023-02-17T14:56:26.327Z,86.50
2023-02-17T14:58:54.943Z,81.60
2023-02-17T15:01:24.697Z,85.33
2023-02-17T15:03:54.770Z,73.63
2023-02-17T15:06:29.323Z,82.77
2023-02-17T15:08:58.798Z,75.53
2023-02-17T15:11:31.227Z,81.17
2023-02-17T15:13:59.235Z,70.23
2023-02-17T15:16:27.236Z,81.67
2023-02-17T15:18:56.623Z,73.97
2023-02-17T15:21:28.555Z,79.60
2023-02-17T15:23:57.955Z,82.27
2023-02-17T15:26:26.547Z,78.93
2023-02-17T15:28:57.058Z,78.70
2023-02-17T15:31:25.703Z,81.50
2023-02-17T15:33:58.727Z,86.17
2023-02-17T15:36:27.770Z,79.67
2023-02-17T15:38:55.925Z,79.50
2023-02-17T15:41:26.846Z,69.70
2023-02-17T15:43:56.655Z,78.90
2023-02-17T15:46:31.006Z,88.63
2023-02-17T15:49:00.539Z,72.57
2023-02-17T15:51:28.499Z,84.60
2023-02-17T15:53:56.469Z,81.40
2023-02-17T15:56:27.767Z,78.87
2023-02-17T15:58:55.883Z,76.07
2023-02-17T16:01:28.764Z,79.87
2023-02-17T16:03:57.550Z,84.90
2023-02-17T16:06:27.504Z,85.30
2023-02-17T16:08:58.305Z,80.60
2023-02-17T16:11:28.360Z,72.57
2023-02-17T16:13:56.327Z,84.47
2023-02-17T16:16:26.124Z,81.67
2023-02-17T16:18:54.030Z,74.00
2023-02-17T16:21:22.072Z,77.03
2023-02-17T16:23:52.604Z,84.00
2023-02-17T16:26:27.226Z,84.63
2023-02-17T16:28:55.557Z,73.80
2023-02-17T16:31:24.170Z,69.23
2023-02-17T16:33:52.288Z,62.73
2023-02-17T16:36:21.825Z,67.17
2023-02-17T16:38:51.799Z,66.70
2023-02-17T16:41:21.077Z,62.13
2023-02-17T16:43:49.043Z,61.60
2023-02-17T16:46:27.758Z,59.67
2023-02-17T16:48:55.725Z,68.50
2023-02-17T16:51:23.706Z,62.00
2023-02-17T16:53:53.665Z,57.83
2023-02-17T16:56:27.389Z,59.07
2023-02-17T16:58:55.346Z,56.33
2023-02-17T17:01:24.321Z,60.07
2023-02-17T17:03:52.402Z,65.23
2023-02-17T17:06:23.571Z,60.10
2023-02-17T17:08:54.131Z,61.30
2023-02-17T17:11:24.669Z,64.13
2023-02-17T17:13:53.576Z,63.20
2023-02-17T17:16:23.911Z,58.87
2023-02-17T17:18:51.827Z,57.60
2023-02-17T17:21:21.196Z,58.83
2023-02-17T17:23:50.612Z,56.57
2023-02-17T17:26:25.523Z,58.60
2023-02-17T17:28:54.089Z,56.70
2023-02-17T17:31:22.458Z,61.80
2023-02-17T17:33:51.963Z,56.10
2023-02-17T17:36:25.807Z,57.10
2023-02-17T17:38:54.620Z,62.57
2023-02-17T17:41:25.719Z,56.13
2023-02-17T17:43:55.378Z,57.73
2023-02-17T17:46:25.269Z,56.50
2023-02-17T17:48:53.193Z,60.27
2023-02-17T17:51:23.482Z,59.97
2023-02-17T17:53:51.778Z,53.20
2023-02-17T17:56:22.711Z,55.23
2023-02-17T17:58:52.902Z,49.07
2023-02-17T18:01:21.906Z,46.90
2023-02-17T18:03:50.347Z,51.00
2023-02-17T18:06:21.403Z,52.40
2023-02-17T18:08:51.138Z,48.17
2023-02-17T18:11:20.734Z,51.90
2023-02-17T18:13:52.988Z,46.63
2023-02-17T18:16:22.540Z,46.00
2023-02-17T18:18:51.660Z,44.47
2023-02-17T18:21:19.671Z,40.33
2023-02-17T18:23:48.047Z,43.90
2023-02-17T18:26:16.484Z,39.70
2023-02-17T18:28:44.525Z,40.87
2023-02-17T18:31:15.848Z,36.23
2023-02-17T18:33:44.617Z,37.20
2023-02-17T18:36:15.749Z,37.03
2023-02-17T18:38:43.983Z,40.43
2023-02-17T18:41:18.549Z,37.47
2023-02-17T18:43:46.769Z,39.40
2023-02-17T18:46:16.149Z,40.83
2023-02-17T18:48:44.394Z,37.20
2023-02-17T18:51:15.156Z,43.30
2023-02-17T18:53:43.858Z,39.17
2023-02-17T18:56:13.139Z,39.43
2023-02-17T18:58:42.382Z,39.63
2023-02-17T19:01:18.614Z,38.13
2023-02-17T19:03:47.181Z,41.67
2023-02-17T19:06:17.518Z,36.10
2023-02-17T19:08:46.680Z,35.77
2023-02-17T19:11:15.633Z,34.67
2023-02-17T19:13:43.630Z,37.80
2023-02-17T19:16:15.188Z,36.67
2023-02-17T19:18:45.471Z,35.27
2023-02-17T19:21:13.630Z,38.77
2023-02-17T19:23:42.528Z,37.00
2023-02-17T19:26:12.015Z,36.40
2023-02-17T19:28:40.700Z,37.43
2023-02-17T19:31:09.925Z,42.93
2023-02-17T19:33:38.508Z,40.27
2023-02-17T19:36:13.682Z,42.07
2023-02-17T19:38:41.794Z,46.63
2023-02-17T19:41:11.500Z,40.47
2023-02-17T19:43:40.038Z,49.43
2023-02-17T19:46:08.880Z,42.20
2023-02-17T19:48:37.170Z,45.83
2023-02-17T19:51:07.752Z,45.73
2023-02-17T19:53:37.365Z,49.70
2023-02-17T19:56:12.198Z,52.53
2023-02-17T19:58:40.549Z,48.30
2023-02-17T20:01:09.763Z,51.67
2023-02-17T20:03:38.160Z,47.70
2023-02-17T20:06:09.028Z,50.67
2023-02-17T20:08:39.288Z,55.83
2023-02-17T20:11:08.816Z,54.13
2023-02-17T20:13:45.624Z,55.07
2023-02-17T20:16:15.769Z,55.70
2023-02-17T20:18:45.737Z,55.87
2023-02-17T20:21:16.447Z,54.57
2023-02-17T20:23:46.257Z,57.07
2023-02-17T20:26:16.675Z,59.63
2023-02-17T20:28:44.707Z,58.30
2023-02-17T20:31:13.474Z,57.07
2023-02-17T20:33:41.780Z,61.47
2023-02-17T20:36:11.138Z,65.07
2023-02-17T20:38:39.577Z,63.37
2023-02-17T20:41:10.119Z,57.13
2023-02-17T20:43:38.844Z,55.60
2023-02-17T20:46:07.833Z,57.87
2023-02-17T20:48:36.073Z,56.67
2023-02-17T20:51:05.759Z,56.00
2023-02-17T20:53:33.913Z,58.30
2023-02-17T20:56:02.101Z,57.67
2023-02-17T20:58:31.387Z,55.77
2023-02-17T21:00:59.301Z,54.07
2023-02-17T21:03:27.387Z,61.57
2023-02-17T21:05:55.378Z,54.83
2023-02-17T21:08:23.513Z,54.67
2023-02-17T21:10:51.396Z,51.23
2023-02-17T21:13:19.761Z,45.33
2023-02-17T21:15:49.217Z,46.23
2023-02-17T21:18:17.413Z,45.33
2023-02-17T21:20:45.462Z,41.43
2023-02-17T21:23:13.511Z,46.13
2023-02-17T21:25:41.408Z,45.03
2023-02-17T21:28:09.311Z,39.73
2023-02-17T21:30:37.233Z,50.83
2023-02-17T21:33:06.571Z,46.77
2023-02-17T21:35:34.545Z,45.03
2023-02-17T21:38:02.416Z,40.97
2023-02-17T21:40:30.498Z,40.20
2023-02-17T21:43:27.256Z,36.77
2023-02-17T21:45:55.176Z,32.73
2023-02-17T21:48:24.519Z,34.40
2023-02-17T21:50:52.389Z,34.80
2023-02-17T21:53:20.309Z,32.47
2023-02-17T21:55:48.214Z,26.13
2023-02-17T21:58:16.093Z,28.37
2023-02-17T22:00:44.046Z,21.90
2023-02-17T22:03:11.978Z,19.80
2023-02-17T22:05:41.204Z,14.90
2023-02-17T22:08:09.198Z,15.00
2023-02-17T22:10:37.884Z,9.80
2023-02-17T22:13:06.213Z,11.23
2023-02-17T22:15:34.245Z,12.70
2023-02-17T22:18:03.012Z,8.70
2023-02-17T22:20:31.214Z,8.07
2023-02-17T22:23:00.473Z,7.43
2023-02-17T22:25:28.473Z,6.53
2023-02-17T22:27:56.389Z,7.63
2023-02-17T22:30:24.717Z,7.50
2023-02-17T22:32:52.626Z,7.50
2023-02-17T22:35:20.980Z,5.97
2023-02-17T22:37:48.989Z,6.87
2023-02-17T22:40:18.606Z,5.67
2023-02-17T22:42:46.516Z,8.03
2023-02-17T22:45:14.380Z,3.10
2023-02-17T22:47:42.252Z,3.50
2023-02-17T22:50:10.469Z,4.33
2023-02-17T22:52:38.379Z,8.93
2023-02-17T22:55:06.934Z,5.20
2023-02-17T22:57:36.198Z,4.60
2023-02-17T23:00:04.646Z,3.57
2023-02-17T23:02:35.257Z,2.53
2023-02-17T23:05:03.364Z,3.57
2023-02-17T23:07:31.294Z,2.33
2023-02-17T23:09:59.202Z,4.33
2023-02-17T23:12:27.500Z,3.97
2023-02-17T23:14:56.803Z,4.40
2023-02-17T23:17:24.723Z,6.77
2023-02-17T23:19:52.675Z,3.07
2023-02-17T23:22:20.623Z,5.80
2023-02-17T23:24:49.325Z,6.27
2023-02-17T23:27:17.322Z,3.70
2023-02-17T23:29:45.299Z,4.17
2023-02-17T23:32:14.635Z,3.77
2023-02-17T23:34:42.598Z,5.80
2023-02-17T23:37:10.481Z,5.60
2023-02-17T23:39:39.075Z,3.43
2023-02-17T23:42:07.460Z,4.13
2023-02-17T23:44:35.461Z,4.33
2023-02-17T23:47:05.126Z,6.33
2023-02-17T23:49:34.478Z,7.67
2023-02-17T23:52:02.574Z,5.57
2023-02-17T23:54:30.467Z,7.77
2023-02-17T23:56:58.423Z,5.10
2023-02-17T23:59:26.431Z,5.47
